Kottayam, India

9:06 AM IST on July 04, 2015 (GMT +0530)
Cochin International | | Change Station
CLOSE
Current Station
Airport
Location: Cochin International Airp,
Elevation: 26 ft
Nearby Weather Stations

Elev 26 ft 10.15 °N, 76.40 °E | Updated 36 minutes ago

Scattered Clouds
Scattered Clouds
77 °F
Feels Like 77 °F
N
0
Wind Variable Wind from North

Today
High -- | Low -- °F
--% Chance of Precip.
Yesterday
High -- | Low -- °F
Precip. -- in
6:07 AM 6:47 PM
Waning Gibbous, 94% visible
Pressure 29.89 in
Visibility 2.2 miles
Clouds Scattered Clouds 1800 ft
Dew Point 73 °F
Humidity 89%
Rainfall 0.00 in
Snow Depth Not available.
UV 3 out of 12
Pollen Not available.
Air Quality Not available.
Flu Activity Not available.
METAR VOCI 040300Z 00000KT 3500 BR SCT018 25/23 Q1012 TEMPO VIS 4000 HZ

More Conditions Fewer Conditions

Pressure 29.89 in
Visibility 2.2 miles
Clouds Scattered Clouds 1800 ft
Dew Point 73 °F
Humidity 89%
Rainfall 0.00 in
Snow Depth Not available.
UV 3 out of 12
Pollen Not available.
Air Quality Not available.
Flu Activity Not available.
METAR VOCI 040300Z 00000KT 3500 BR SCT018 25/23 Q1012 TEMPO VIS 4000 HZ

More Conditions Fewer Conditions

10-Day Weather Forecast

×

Almanac

Astronomy

Jul. 04, 2015 Rise Set
Actual Time
Civil Twilight
Nautical Twilight
Astronomical Twilight
Moon
Length of Visible Light
Length of Day
Tomorrow will be .
, % of the Moon is Illuminated

Today's Extremes

Country Highs Country Lows

Community

WunderPhotos

Upload Photos

1,834,911 photos uploaded!

WunderBlogs® & News

Nearby

Air Quality

  Air Quality AQ Index Pollutant
Not available.

Snow Depth

Station Depth Elevation

Earthquake Activity

City Distance Mag. Time & Date
Minimum magnitude displayed is 2.5.

Coastal Water Temperatures

Place Temperature

Stations

Nearby Weather Stations

Station Location Temp. Windchill Dew Point Humidity Wind Precip. Elev Updated Type